createdAt,value
2022-10-21T05:31:12.501Z,13.95
2022-10-21T05:33:39.630Z,16.08
2022-10-21T05:36:08.658Z,12.65
2022-10-21T05:38:35.883Z,25.55
2022-10-21T05:41:03.540Z,24.55
2022-10-21T05:43:30.902Z,18.80
2022-10-21T05:45:58.365Z,10.90
2022-10-21T05:48:25.868Z,12.25
2022-10-21T05:50:55.046Z,20.33
2022-10-21T05:53:24.090Z,23.73
2022-10-21T05:56:02.117Z,15.15
2022-10-21T05:58:34.511Z,23.90
2022-10-21T06:01:02.952Z,25.38
2022-10-21T06:03:36.190Z,22.77
2022-10-21T06:06:06.890Z,20.13
2022-10-21T06:08:36.494Z,15.88
2022-10-21T06:11:08.263Z,16.67
2022-10-21T06:13:39.961Z,23.00
2022-10-21T06:16:09.600Z,19.40
2022-10-21T06:18:37.560Z,14.02
2022-10-21T06:21:06.207Z,19.67
2022-10-21T06:23:34.865Z,29.45
2022-10-21T06:26:06.129Z,17.52
2022-10-21T06:28:37.348Z,29.85
2022-10-21T06:31:06.150Z,28.33
2022-10-21T06:33:35.557Z,27.67
2022-10-21T06:36:03.760Z,27.40
2022-10-21T06:38:33.566Z,32.95
2022-10-21T06:41:09.206Z,21.38
2022-10-21T06:43:42.189Z,26.38
2022-10-21T06:46:12.591Z,25.63
2022-10-21T06:48:40.097Z,22.95
2022-10-21T06:51:10.793Z,17.02
2022-10-21T06:53:39.367Z,10.10
2022-10-21T06:56:09.905Z,9.85
2022-10-21T06:58:38.792Z,21.20
2022-10-21T07:01:16.517Z,13.57
2022-10-21T07:03:55.684Z,20.38
2022-10-21T07:06:23.734Z,10.25
2022-10-21T07:08:57.810Z,10.57
2022-10-21T07:11:28.898Z,11.98
2022-10-21T07:13:57.311Z,12.85
2022-10-21T07:16:28.251Z,18.83
2022-10-21T07:18:56.058Z,6.47
2022-10-21T07:21:25.388Z,8.95
2022-10-21T07:23:54.047Z,13.13
2022-10-21T07:26:24.701Z,17.35
2022-10-21T07:28:52.489Z,16.80
2022-10-21T07:31:21.712Z,25.13
2022-10-21T07:33:50.023Z,19.33
2022-10-21T07:36:21.261Z,15.05
2022-10-21T07:38:49.996Z,19.48
2022-10-21T07:41:21.910Z,15.05
2022-10-21T07:43:50.136Z,15.32
2022-10-21T07:46:19.770Z,21.40
2022-10-21T07:48:50.234Z,17.77
2022-10-21T07:51:25.732Z,24.10
2022-10-21T07:53:59.932Z,14.88
2022-10-21T07:56:30.975Z,22.42
2022-10-21T07:59:13.434Z,16.20
2022-10-21T08:01:45.200Z,13.65
2022-10-21T08:04:16.175Z,20.38
2022-10-21T08:06:56.794Z,9.70
2022-10-21T08:09:32.092Z,7.38
2022-10-21T08:12:00.844Z,12.02
2022-10-21T08:14:29.019Z,18.75
2022-10-21T08:16:58.013Z,12.30
2022-10-21T08:19:29.883Z,15.23
2022-10-21T08:22:00.681Z,15.63
2022-10-21T08:24:29.025Z,12.98
2022-10-21T08:26:56.804Z,13.82
2022-10-21T08:29:24.558Z,22.63
2022-10-21T08:31:52.294Z,18.58
2022-10-21T08:34:19.873Z,18.55
2022-10-21T08:36:47.476Z,20.13
2022-10-21T08:39:19.190Z,25.75
2022-10-21T08:42:12.037Z,17.20
2022-10-21T08:44:49.739Z,21.20
2022-10-21T08:47:37.595Z,19.08
2022-10-21T08:50:23.562Z,22.05
2022-10-21T08:53:06.247Z,18.35
2022-10-21T08:55:36.791Z,25.85
2022-10-21T08:58:05.307Z,10.13
2022-10-21T09:00:38.507Z,7.82
2022-10-21T09:03:32.539Z,10.63
2022-10-21T09:06:38.039Z,11.70
2022-10-21T09:09:24.894Z,16.05
2022-10-21T09:15:21.130Z,4.70
2022-10-21T09:21:03.161Z,7.03
2022-10-21T09:23:58.482Z,9.68
2022-10-21T09:26:44.673Z,9.25
2022-10-21T09:29:33.515Z,6.60
2022-10-21T09:38:40.776Z,18.10
2022-10-21T09:41:16.574Z,12.18
2022-10-21T09:43:44.914Z,4.80
2022-10-21T09:46:13.989Z,3.58
2022-10-21T09:49:22.931Z,6.25
2022-10-21T09:51:37.970Z,8.07
2022-10-21T09:54:10.437Z,5.45
2022-10-21T09:57:00.632Z,4.35
2022-10-21T09:59:32.895Z,5.78
2022-10-21T10:02:15.627Z,5.72
2022-10-21T10:04:43.472Z,6.00
2022-10-21T10:07:32.784Z,7.85
2022-10-21T10:10:00.883Z,5.03
2022-10-21T10:12:29.690Z,6.80
2022-10-21T10:15:02.952Z,10.00
2022-10-21T10:17:35.410Z,4.90
2022-10-21T10:20:12.750Z,10.55
2022-10-21T10:22:43.993Z,7.95
2022-10-21T10:30:50.715Z,12.73
2022-10-21T10:33:31.471Z,9.70
2022-10-21T10:36:05.541Z,5.78
2022-10-21T10:38:39.087Z,10.55
2022-10-21T10:41:12.612Z,6.60
2022-10-21T10:43:52.381Z,9.50
2022-10-21T10:49:19.403Z,10.68
2022-10-21T10:51:49.407Z,6.35
2022-10-21T10:54:28.327Z,1.88
2022-10-21T11:00:14.216Z,5.85
2022-10-21T11:03:03.107Z,4.72
2022-10-21T11:05:42.759Z,6.93
2022-10-21T11:08:17.797Z,6.50
2022-10-21T11:10:50.518Z,5.78
2022-10-21T11:13:21.771Z,4.50
2022-10-21T11:16:19.400Z,3.78
2022-10-21T11:19:19.092Z,3.20
2022-10-21T11:21:50.646Z,3.28
2022-10-21T11:24:47.231Z,2.22
2022-10-21T11:27:39.484Z,5.65
2022-10-21T11:30:19.859Z,2.88
2022-10-21T11:33:04.643Z,2.45
2022-10-21T11:35:58.894Z,3.85
2022-10-21T11:38:51.586Z,7.32
2022-10-21T11:41:28.238Z,12.80
2022-10-21T11:44:21.355Z,6.88
2022-10-21T11:47:16.661Z,2.65
2022-10-21T11:53:11.779Z,4.97
2022-10-21T11:56:02.469Z,2.35
2022-10-21T11:58:50.872Z,7.07
2022-10-21T12:01:37.024Z,5.40
2022-10-21T12:07:24.502Z,1.48
2022-10-21T12:10:15.407Z,3.25
2022-10-21T12:12:47.608Z,7.63
2022-10-21T12:15:23.139Z,3.28
2022-10-21T12:17:51.259Z,8.35
2022-10-21T12:20:24.151Z,2.20
2022-10-21T12:22:58.727Z,3.72
2022-10-21T12:25:39.531Z,0.80
2022-10-21T12:28:32.784Z,1.25
2022-10-21T12:31:39.482Z,5.32
2022-10-21T12:34:10.940Z,0.68
2022-10-21T12:36:45.881Z,7.32
2022-10-21T12:39:36.709Z,1.17
2022-10-21T12:44:50.787Z,2.22
2022-10-21T12:47:31.010Z,0.80
2022-10-21T12:50:22.742Z,7.78
2022-10-21T12:53:07.266Z,2.85
2022-10-21T12:55:40.916Z,2.60
2022-10-21T12:58:27.932Z,2.17
2022-10-21T13:00:58.412Z,4.40
2022-10-21T13:03:48.116Z,2.72
2022-10-21T13:06:15.716Z,10.70
2022-10-21T13:11:38.766Z,2.42
2022-10-21T13:14:33.643Z,1.67
2022-10-21T13:17:26.256Z,7.05
2022-10-21T13:20:15.390Z,2.45
2022-10-21T13:22:45.169Z,6.55
2022-10-21T13:25:25.606Z,5.03
2022-10-21T13:28:22.264Z,5.60
2022-10-21T13:33:30.315Z,3.28
2022-10-21T13:36:03.623Z,2.97
2022-10-21T13:38:34.203Z,9.15
2022-10-21T13:41:18.214Z,4.32
2022-10-21T13:43:51.080Z,3.85
2022-10-21T13:46:24.065Z,3.72
2022-10-21T13:51:26.136Z,3.60
2022-10-21T13:53:57.791Z,5.57
2022-10-21T13:56:31.264Z,1.77
2022-10-21T13:59:00.480Z,1.63
2022-10-21T14:01:31.072Z,3.33
2022-10-21T14:04:17.544Z,32.45
2022-10-21T14:06:50.833Z,8.90
2022-10-21T14:09:42.022Z,5.00
2022-10-21T14:12:21.843Z,1.00
2022-10-21T14:14:51.164Z,1.85
2022-10-21T14:17:22.323Z,3.30
2022-10-21T14:19:53.931Z,6.57
2022-10-21T14:22:24.885Z,2.50
2022-10-21T14:24:57.490Z,1.83
2022-10-21T14:27:28.153Z,4.22
2022-10-21T14:29:57.107Z,6.63
2022-10-21T14:32:26.596Z,6.40
2022-10-21T14:37:43.457Z,2.88
2022-10-21T14:40:21.777Z,3.85
2022-10-21T14:42:53.177Z,5.90
2022-10-21T14:45:27.420Z,5.95
2022-10-21T14:48:20.407Z,11.55
2022-10-21T14:50:53.885Z,3.58
2022-10-21T14:53:23.880Z,7.03
2022-10-21T14:55:57.071Z,5.97
2022-10-21T14:58:30.949Z,1.60
2022-10-21T15:01:01.301Z,2.30
2022-10-21T15:03:47.282Z,2.00
2022-10-21T15:06:17.718Z,4.85
2022-10-21T15:09:14.824Z,8.68
2022-10-21T15:11:44.395Z,9.15
2022-10-21T15:16:56.703Z,3.60
2022-10-21T15:19:30.118Z,1.95
2022-10-21T15:22:01.601Z,2.00
2022-10-21T15:27:05.685Z,0.70
2022-10-21T15:29:45.416Z,4.85
2022-10-21T15:32:19.024Z,1.15
2022-10-21T15:34:50.136Z,4.60
2022-10-21T15:37:17.694Z,2.75
2022-10-21T15:39:45.614Z,6.53
2022-10-21T15:42:16.424Z,3.33
2022-10-21T15:44:48.314Z,0.40
2022-10-21T15:47:15.987Z,4.45
2022-10-21T15:49:46.018Z,6.47
2022-10-21T15:52:14.345Z,0.85
2022-10-21T15:54:42.086Z,3.03
2022-10-21T15:57:19.651Z,1.70
2022-10-21T15:59:47.978Z,4.15
